Time;durP1;ratioP1;P1;durP2;ratioP2;P2;SDS_P1;SDS_P2;PMS_P1;PMS_P2;Temp;Humidity;BMP_temperature;BMP_pressure;BME280_temperature;BME280_humidity;BME280_pressure;Samples;Min_cycle;Max_cycle;Signal;HPM_P1;HPM_P2
2022/08/10 00:00:57;;;;;;;10.07;4.30;;;18.90;19.40;;;;;;4937166;29;20483;-69
2022/08/10 00:03:23;;;;;;;8.00;4.60;;;18.80;19.50;;;;;;4926455;29;20481;-69
2022/08/10 00:05:53;;;;;;;7.03;4.40;;;18.80;19.60;;;;;;4931546;29;20479;-68
2022/08/10 00:08:21;;;;;;;9.00;5.10;;;18.80;19.70;;;;;;4926425;29;20531;-68
2022/08/10 00:10:49;;;;;;;10.50;4.87;;;18.70;19.70;;;;;;4939026;29;20518;-68
2022/08/10 00:13:15;;;;;;;10.70;5.40;;;18.70;19.80;;;;;;4927203;29;21153;-68
2022/08/10 00:15:42;;;;;;;8.90;5.20;;;18.60;19.90;;;;;;4926401;29;20460;-68
2022/08/10 00:18:09;;;;;;;8.97;3.97;;;18.60;19.90;;;;;;4927539;29;20455;-68
2022/08/10 00:20:36;;;;;;;6.63;3.90;;;18.60;19.80;;;;;;4934530;29;20475;-69
2022/08/10 00:23:04;;;;;;;8.17;4.97;;;18.60;20.10;;;;;;4932363;29;20494;-68
2022/08/10 00:25:30;;;;;;;8.30;4.60;;;18.50;20.10;;;;;;4927043;29;20478;-68
2022/08/10 00:27:58;;;;;;;9.73;4.97;;;18.50;20.50;;;;;;4942683;29;20461;-69
2022/08/10 00:30:25;;;;;;;10.70;5.73;;;18.40;20.70;;;;;;4933020;28;20506;-69
2022/08/10 00:32:52;;;;;;;9.80;5.67;;;18.40;20.80;;;;;;4931176;29;20463;-68
2022/08/10 00:35:19;;;;;;;7.53;5.17;;;18.40;21.00;;;;;;4927491;29;20470;-68
2022/08/10 00:37:46;;;;;;;9.70;5.43;;;18.30;20.80;;;;;;4930923;29;20464;-68
2022/08/10 00:40:13;;;;;;;12.97;4.83;;;18.30;21.10;;;;;;4934074;29;20494;-68
2022/08/10 00:42:40;;;;;;;9.00;6.07;;;18.20;21.20;;;;;;4925013;29;20469;-67
2022/08/10 00:45:09;;;;;;;8.30;4.70;;;18.20;21.10;;;;;;4930836;29;20467;-67
2022/08/10 00:47:36;;;;;;;6.67;4.47;;;18.20;21.50;;;;;;4922808;29;20554;-69
2022/08/10 00:50:05;;;;;;;8.00;4.47;;;18.10;21.50;;;;;;4930342;29;20495;-69
2022/08/10 00:52:32;;;;;;;6.97;4.30;;;18.10;21.50;;;;;;4926492;29;20462;-69
2022/08/10 00:55:01;;;;;;;9.30;5.03;;;18.10;21.40;;;;;;4926200;29;20455;-69
2022/08/10 00:57:28;;;;;;;9.70;4.53;;;18.10;21.60;;;;;;4934398;29;20536;-70
2022/08/10 00:59:55;;;;;;;10.13;4.73;;;18.10;21.80;;;;;;4932387;29;20485;-68
2022/08/10 01:02:23;;;;;;;6.67;4.37;;;18.00;21.50;;;;;;4927914;29;20462;-68
2022/08/10 01:04:50;;;;;;;7.90;5.10;;;18.00;21.80;;;;;;4927758;29;20513;-69
2022/08/10 01:07:30;;;;;;;12.40;5.20;;;18.00;21.40;;;;;;4932965;29;20463;-69
2022/08/10 01:10:07;;;;;;;6.10;4.47;;;17.90;21.50;;;;;;4930902;29;21058;-68
2022/08/10 01:12:41;;;;;;;8.00;4.33;;;17.80;21.70;;;;;;4928322;29;21159;-68
2022/08/10 01:15:18;;;;;;;8.47;4.90;;;17.80;21.70;;;;;;4927516;29;20920;-68
2022/08/10 01:17:53;;;;;;;9.30;5.57;;;17.80;21.80;;;;;;4927954;29;20459;-69
2022/08/10 01:20:30;;;;;;;8.00;5.27;;;17.70;22.10;;;;;;4929476;29;20486;-69
2022/08/10 01:23:25;;;;;;;11.90;6.10;;;17.70;22.20;;;;;;4932677;29;20486;-68
2022/08/10 01:26:36;;;;;;;8.67;5.97;;;17.60;22.40;;;;;;4939780;29;20470;-69
2022/08/10 01:29:21;;;;;;;10.23;6.27;;;17.60;22.50;;;;;;4858056;29;21049;-69
2022/08/10 01:31:53;;;;;;;7.63;5.50;;;17.60;22.80;;;;;;4900334;29;20854;-68
2022/08/10 01:34:24;;;;;;;10.60;6.93;;;17.50;23.10;;;;;;4933018;28;20462;-68
2022/08/10 01:36:55;;;;;;;9.90;6.50;;;17.50;23.10;;;;;;4946919;28;20462;-68
2022/08/10 01:39:25;;;;;;;10.67;6.17;;;17.50;23.00;;;;;;4956280;28;20478;-68
2022/08/10 01:41:56;;;;;;;10.63;6.23;;;17.40;22.90;;;;;;4962001;28;20465;-69
2022/08/10 01:44:30;;;;;;;12.30;7.10;;;17.40;23.00;;;;;;4946796;28;20482;-67
2022/08/10 01:49:43;;;;;;;11.63;6.07;;;17.30;23.40;;;;;;4941143;28;20785;-69
2022/08/10 01:52:10;;;;;;;8.47;5.57;;;17.30;23.50;;;;;;4946259;28;20451;-68
2022/08/10 01:54:41;;;;;;;7.17;5.23;;;17.30;23.60;;;;;;4950367;28;20450;-68
2022/08/10 01:57:10;;;;;;;9.10;4.90;;;17.30;23.50;;;;;;4948154;28;20527;-68
2022/08/10 01:59:41;;;;;;;6.13;5.13;;;17.20;23.70;;;;;;4955068;28;20479;-68
2022/08/10 02:02:13;;;;;;;7.73;4.87;;;17.20;23.90;;;;;;4942281;28;20459;-68
2022/08/10 02:04:45;;;;;;;9.20;5.40;;;17.20;23.90;;;;;;4966150;28;20477;-68
2022/08/10 02:07:16;;;;;;;9.77;5.30;;;17.20;23.90;;;;;;4953234;28;20470;-67
2022/08/10 02:09:53;;;;;;;10.03;6.67;;;17.10;24.00;;;;;;4945772;28;20494;-68
2022/08/10 02:12:22;;;;;;;11.83;6.50;;;17.10;24.30;;;;;;4948822;28;20816;-68
2022/08/10 02:14:53;;;;;;;13.13;7.60;;;17.10;24.40;;;;;;4950085;28;20473;-68
2022/08/10 02:17:25;;;;;;;10.90;6.80;;;17.00;24.10;;;;;;4944657;28;21026;-67
2022/08/10 02:19:54;;;;;;;7.63;5.33;;;17.00;24.00;;;;;;4945777;28;21323;-67
2022/08/10 02:22:22;;;;;;;9.27;6.00;;;17.00;24.20;;;;;;4956877;28;20459;-68
2022/08/10 02:24:51;;;;;;;9.33;6.30;;;17.00;24.50;;;;;;4958018;28;20491;-68
2022/08/10 02:27:18;;;;;;;8.50;5.57;;;17.00;24.20;;;;;;4951164;28;20462;-68
2022/08/10 02:29:46;;;;;;;9.53;5.40;;;16.90;24.50;;;;;;4949513;28;20513;-69
2022/08/10 02:32:15;;;;;;;7.60;5.57;;;16.90;24.40;;;;;;4937560;29;20456;-67
2022/08/10 02:34:44;;;;;;;6.33;4.67;;;16.90;24.60;;;;;;4944718;29;20966;-68
2022/08/10 02:37:13;;;;;;;8.10;4.97;;;16.90;24.70;;;;;;4955567;23;21358;-61
2022/08/10 02:39:40;;;;;;;7.27;5.10;;;16.90;24.60;;;;;;4966823;28;20462;-62
2022/08/10 02:42:14;;;;;;;7.07;4.93;;;16.90;24.70;;;;;;4969744;28;21165;-61
2022/08/10 02:44:48;;;;;;;8.40;5.40;;;16.90;24.70;;;;;;4969522;28;20508;-61
2022/08/10 02:47:21;;;;;;;6.67;5.43;;;16.80;24.80;;;;;;4967251;28;20457;-61
2022/08/10 02:49:56;;;;;;;7.87;6.17;;;16.80;24.90;;;;;;4966344;28;20461;-62
2022/08/10 02:52:28;;;;;;;10.83;6.43;;;16.80;25.00;;;;;;4969095;28;20501;-62
2022/08/10 02:55:01;;;;;;;7.43;5.57;;;16.70;25.10;;;;;;4962182;28;20581;-60
2022/08/10 02:57:35;;;;;;;7.10;5.20;;;16.80;25.10;;;;;;4967733;28;20453;-62
2022/08/10 03:00:06;;;;;;;6.90;5.20;;;16.70;25.30;;;;;;4962707;28;20543;-62
2022/08/10 03:02:36;;;;;;;10.83;5.30;;;16.70;25.60;;;;;;4963826;28;20513;-61
2022/08/10 03:05:09;;;;;;;6.93;5.60;;;16.70;25.60;;;;;;4966748;28;20489;-61
2022/08/10 03:07:45;;;;;;;6.97;5.30;;;16.60;25.80;;;;;;4967436;28;20541;-62
2022/08/10 03:10:16;;;;;;;6.87;5.33;;;16.60;25.90;;;;;;4966754;28;20500;-63
2022/08/10 03:12:47;;;;;;;7.23;6.13;;;16.50;26.00;;;;;;4966188;28;21001;-63
2022/08/10 03:15:15;;;;;;;8.40;5.17;;;16.50;26.00;;;;;;4966274;28;20453;-63
2022/08/10 03:17:44;;;;;;;107.23;12.17;;;16.50;26.10;;;;;;4969214;28;21139;-61
2022/08/10 03:20:14;;;;;;;6.00;4.50;;;16.40;26.20;;;;;;4969697;28;20477;-61
2022/08/10 03:22:42;;;;;;;7.03;5.50;;;16.40;26.40;;;;;;4965759;28;20482;-60
2022/08/10 03:25:11;;;;;;;6.47;5.30;;;16.40;26.50;;;;;;4961672;28;20478;-61
2022/08/10 03:27:40;;;;;;;7.97;5.77;;;16.40;26.70;;;;;;4969120;28;20462;-61
2022/08/10 03:30:08;;;;;;;9.83;7.17;;;16.40;26.50;;;;;;4965877;28;20509;-62
2022/08/10 03:32:36;;;;;;;11.50;7.70;;;16.40;26.60;;;;;;4964671;28;20485;-60
2022/08/10 03:35:05;;;;;;;11.03;7.40;;;16.40;26.70;;;;;;4963977;28;20893;-62
2022/08/10 03:37:33;;;;;;;10.30;6.90;;;16.30;26.80;;;;;;4969294;28;20473;-60
2022/08/10 03:40:00;;;;;;;8.00;6.30;;;16.30;26.70;;;;;;4968343;28;20465;-62
2022/08/10 03:42:30;;;;;;;6.83;5.47;;;16.30;26.90;;;;;;4958105;28;20489;-61
2022/08/10 03:44:59;;;;;;;7.10;5.37;;;16.20;26.80;;;;;;4963008;28;21013;-61
2022/08/10 03:47:29;;;;;;;9.97;5.83;;;16.20;27.10;;;;;;4967795;28;20492;-61
2022/08/10 03:49:58;;;;;;;8.33;6.40;;;16.20;27.20;;;;;;4967267;28;20466;-62
2022/08/10 03:52:26;;;;;;;9.27;5.90;;;16.20;27.00;;;;;;4965369;28;20477;-63
2022/08/10 03:54:55;;;;;;;6.87;5.27;;;16.20;27.20;;;;;;4963280;28;20459;-61
2022/08/10 03:57:23;;;;;;;9.23;6.57;;;16.10;27.40;;;;;;4968743;28;20497;-61
2022/08/10 03:59:50;;;;;;;8.03;6.50;;;16.10;27.40;;;;;;4964381;28;20496;-61
2022/08/10 04:02:17;;;;;;;7.43;5.63;;;16.10;27.60;;;;;;4962464;28;20486;-62
2022/08/10 04:04:44;;;;;;;8.77;5.80;;;16.10;27.60;;;;;;4966884;28;20608;-62
2022/08/10 04:07:12;;;;;;;9.07;6.40;;;16.00;27.60;;;;;;4966005;28;20470;-63
2022/08/10 04:09:39;;;;;;;9.00;6.70;;;16.00;27.90;;;;;;4961811;28;20995;-61
2022/08/10 04:12:08;;;;;;;7.50;5.80;;;16.00;28.10;;;;;;4956461;28;20514;-61
2022/08/10 04:14:35;;;;;;;7.37;5.93;;;16.00;27.90;;;;;;4964018;28;20465;-61
2022/08/10 04:17:02;;;;;;;7.40;6.40;;;15.90;28.20;;;;;;4967784;28;20458;-61
2022/08/10 04:19:35;;;;;;;10.50;6.10;;;15.90;28.30;;;;;;4966085;28;20468;-60
2022/08/10 04:22:09;;;;;;;8.67;6.20;;;15.90;28.10;;;;;;4967148;28;20939;-62
2022/08/10 04:24:39;;;;;;;9.23;6.30;;;15.90;28.40;;;;;;4965286;28;20493;-62
2022/08/10 04:27:08;;;;;;;10.60;6.27;;;15.90;28.40;;;;;;4964488;28;20512;-62
2022/08/10 04:29:36;;;;;;;7.40;5.67;;;15.90;28.20;;;;;;4963342;28;20545;-62
2022/08/10 04:32:04;;;;;;;8.20;5.63;;;16.00;28.10;;;;;;4962501;28;20477;-63
2022/08/10 04:34:32;;;;;;;8.67;5.80;;;16.00;27.90;;;;;;4960633;28;20508;-62
2022/08/10 04:37:01;;;;;;;7.37;5.97;;;16.00;27.80;;;;;;4967661;28;20884;-62
2022/08/10 04:39:28;;;;;;;7.60;6.30;;;16.10;27.80;;;;;;4956924;28;20471;-63
2022/08/10 04:41:56;;;;;;;8.40;5.73;;;16.00;28.00;;;;;;4962854;28;20822;-62
2022/08/10 04:44:24;;;;;;;7.70;5.83;;;16.10;27.60;;;;;;4960155;28;21004;-62
2022/08/10 04:46:51;;;;;;;8.60;6.67;;;16.10;27.80;;;;;;4969810;28;20457;-63
2022/08/10 04:49:18;;;;;;;9.70;6.40;;;16.20;27.70;;;;;;4968705;28;20981;-61
2022/08/10 04:51:45;;;;;;;10.40;5.53;;;16.30;27.60;;;;;;4967408;28;20466;-62
2022/08/10 04:54:12;;;;;;;13.83;6.70;;;16.30;27.50;;;;;;4961369;28;20549;-62
2022/08/10 04:56:39;;;;;;;18.97;7.60;;;16.40;27.40;;;;;;4971175;28;21081;-62
2022/08/10 04:59:08;;;;;;;24.23;8.23;;;16.40;27.10;;;;;;4972007;28;20524;-61
2022/08/10 05:01:38;;;;;;;27.77;7.07;;;16.50;26.90;;;;;;4967281;28;20457;-62
2022/08/10 05:04:05;;;;;;;14.63;6.90;;;16.60;26.80;;;;;;4970263;28;20489;-62
2022/08/10 05:06:32;;;;;;;19.30;7.00;;;16.70;26.90;;;;;;4969679;28;21063;-62
2022/08/10 05:08:59;;;;;;;27.87;7.53;;;16.80;26.70;;;;;;4968048;28;20540;-61
2022/08/10 05:11:26;;;;;;;15.33;6.20;;;16.90;26.70;;;;;;4959997;28;20463;-62
2022/08/10 05:13:53;;;;;;;10.27;6.57;;;17.00;26.30;;;;;;4967489;28;20482;-63
2022/08/10 05:16:20;;;;;;;11.20;5.60;;;17.40;25.70;;;;;;4971330;28;20585;-63
2022/08/10 05:18:49;;;;;;;9.07;5.57;;;18.10;24.50;;;;;;4964235;28;20588;-62
2022/08/10 05:21:16;;;;;;;6.47;4.60;;;19.70;20.50;;;;;;4971408;28;20496;-62
2022/08/10 05:23:43;;;;;;;10.17;4.37;;;21.30;16.80;;;;;;4968570;28;20484;-62
2022/08/10 05:26:10;;;;;;;8.13;4.00;;;22.80;13.50;;;;;;4970481;28;20564;-62
2022/08/10 05:28:37;;;;;;;5.60;4.20;;;24.30;10.70;;;;;;4970281;28;20477;-63
2022/08/10 05:31:04;;;;;;;9.20;4.20;;;25.60;7.90;;;;;;4964973;28;20461;-63
2022/08/10 05:33:31;;;;;;;6.50;3.43;;;26.90;5.40;;;;;;4969407;28;20916;-63
2022/08/10 05:36:00;;;;;;;7.60;3.60;;;28.20;3.50;;;;;;4970076;28;20969;-63
2022/08/10 05:38:27;;;;;;;9.00;3.20;;;29.30;1.70;;;;;;4982269;28;20498;-64
2022/08/10 05:40:57;;;;;;;7.90;3.63;;;30.50;1.00;;;;;;4991313;28;20457;-62
2022/08/10 05:43:24;;;;;;;6.77;3.20;;;31.60;1.00;;;;;;4984030;28;20473;-64
2022/08/10 05:45:52;;;;;;;5.70;2.77;;;32.60;1.00;;;;;;4985788;28;20477;-64
2022/08/10 05:48:19;;;;;;;7.87;3.67;;;33.60;1.00;;;;;;4986040;28;20523;-63
2022/08/10 05:50:46;;;;;;;5.70;2.77;;;34.60;1.00;;;;;;4981004;28;20928;-63
2022/08/10 05:53:14;;;;;;;7.60;3.20;;;35.40;1.00;;;;;;4991675;23;20534;-69
2022/08/10 05:55:41;;;;;;;7.50;3.17;;;36.30;1.00;;;;;;4959253;23;20552;-69
2022/08/10 05:58:08;;;;;;;5.23;2.90;;;37.10;1.00;;;;;;4964762;28;20466;-70
2022/08/10 06:00:38;;;;;;;5.37;2.50;;;37.80;1.00;;;;;;4963795;28;20461;-70
2022/08/10 06:03:07;;;;;;;6.70;3.00;;;38.50;1.00;;;;;;4968591;28;20470;-69
2022/08/10 06:05:36;;;;;;;6.83;2.47;;;39.20;1.00;;;;;;4970145;28;20989;-69
2022/08/10 06:08:08;;;;;;;6.87;2.60;;;39.70;1.00;;;;;;4966672;28;20827;-68
2022/08/10 06:10:38;;;;;;;5.93;2.10;;;40.10;1.00;;;;;;4987677;23;20562;-68
2022/08/10 06:15:53;;;;;;;6.00;1.90;;;41.10;1.00;;;;;;4984099;28;21162;-69
2022/08/10 06:18:21;;;;;;;4.10;1.90;;;41.60;1.00;;;;;;4978298;28;20467;-69
2022/08/10 06:23:23;;;;;;;3.90;1.60;;;42.40;1.00;;;;;;4979074;28;20543;-60
2022/08/10 06:25:51;;;;;;;4.87;1.90;;;43.00;1.00;;;;;;4981326;28;20491;-59
2022/08/10 06:28:20;;;;;;;7.33;1.90;;;43.50;1.00;;;;;;4985464;23;20537;-69
2022/08/10 06:30:49;;;;;;;5.27;1.77;;;43.80;1.00;;;;;;4955566;28;20465;-69
2022/08/10 06:33:18;;;;;;;5.87;1.60;;;44.20;1.00;;;;;;4965273;28;20462;-71
2022/08/10 06:35:46;;;;;;;3.23;1.20;;;44.60;1.00;;;;;;4954255;23;20497;-70
2022/08/10 06:38:14;;;;;;;4.97;2.07;;;45.10;1.00;;;;;;4948384;28;20454;-70
2022/08/10 06:40:45;;;;;;;3.73;1.67;;;45.20;1.00;;;;;;4944442;29;20840;-68
2022/08/10 06:43:16;;;;;;;4.03;1.40;;;45.60;1.00;;;;;;4946448;28;20469;-70
2022/08/10 06:45:47;;;;;;;5.73;1.73;;;45.70;1.00;;;;;;4943532;29;21097;-69
2022/08/10 06:48:21;;;;;;;3.70;1.57;;;45.80;1.00;;;;;;4937249;29;20566;-70
2022/08/10 06:50:51;;;;;;;3.90;1.63;;;45.40;1.00;;;;;;4931994;29;20467;-70
2022/08/10 06:53:20;;;;;;;5.40;1.60;;;45.00;1.00;;;;;;4936737;29;20460;-70
2022/08/10 06:55:51;;;;;;;4.57;1.90;;;45.30;1.00;;;;;;4924111;29;21126;-71
2022/08/10 06:58:22;;;;;;;5.70;1.70;;;45.50;1.00;;;;;;4934943;29;20582;-71
2022/08/10 07:00:53;;;;;;;5.83;1.97;;;45.90;1.00;;;;;;4926537;29;20471;-69
2022/08/10 07:03:26;;;;;;;3.70;1.80;;;45.70;1.00;;;;;;4931343;29;20462;-70
2022/08/10 07:05:54;;;;;;;5.37;1.67;;;45.50;1.00;;;;;;4921523;29;20853;-70
2022/08/10 07:08:22;;;;;;;3.73;1.43;;;45.70;1.00;;;;;;4929664;29;20467;-69
2022/08/10 07:10:53;;;;;;;5.47;1.60;;;46.10;1.00;;;;;;4929082;29;20463;-70
2022/08/10 07:13:22;;;;;;;4.70;1.50;;;46.60;1.00;;;;;;4926745;29;20465;-69
2022/08/10 07:15:49;;;;;;;4.13;1.90;;;46.40;1.00;;;;;;4926434;28;20492;-69
2022/08/10 07:18:19;;;;;;;6.77;1.60;;;46.80;1.00;;;;;;4930456;29;20456;-69
2022/08/10 07:20:47;;;;;;;4.13;1.60;;;46.60;1.00;;;;;;4923854;29;21004;-69
2022/08/10 07:23:16;;;;;;;4.90;1.63;;;46.60;1.00;;;;;;4929767;29;21000;-69
2022/08/10 07:25:46;;;;;;;4.13;1.80;;;47.10;1.00;;;;;;4929660;29;20487;-69
2022/08/10 07:28:14;;;;;;;6.80;1.73;;;47.50;1.00;;;;;;4933770;29;20471;-70
2022/08/10 07:30:44;;;;;;;4.70;1.40;;;47.70;1.00;;;;;;4929018;29;20464;-69
2022/08/10 07:33:13;;;;;;;4.90;1.60;;;48.10;1.00;;;;;;4924875;29;20841;-68
2022/08/10 07:35:43;;;;;;;4.83;1.83;;;47.70;1.00;;;;;;4929852;29;20577;-68
2022/08/10 07:38:15;;;;;;;3.57;1.57;;;47.70;1.00;;;;;;4932608;29;20475;-68
2022/08/10 07:40:44;;;;;;;6.50;1.50;;;47.90;1.00;;;;;;4928276;29;20493;-67
2022/08/10 07:43:12;;;;;;;5.03;1.53;;;48.50;1.00;;;;;;4934471;29;20463;-67
2022/08/10 07:45:41;;;;;;;4.67;1.70;;;48.70;1.00;;;;;;4940890;29;20496;-69
2022/08/10 07:48:12;;;;;;;4.37;1.27;;;49.20;1.00;;;;;;4924789;29;20841;-68
2022/08/10 07:50:40;;;;;;;5.03;1.47;;;48.60;1.00;;;;;;4937888;29;20458;-68
2022/08/10 07:53:11;;;;;;;4.53;1.40;;;48.70;1.00;;;;;;4925762;29;20831;-68
2022/08/10 07:55:42;;;;;;;4.23;1.60;;;49.10;1.00;;;;;;4924925;29;20484;-68
2022/08/10 07:58:11;;;;;;;3.70;1.40;;;49.50;1.00;;;;;;4928539;29;20463;-68
2022/08/10 08:00:40;;;;;;;5.17;1.67;;;49.90;1.00;;;;;;4929343;29;20455;-69
2022/08/10 08:03:11;;;;;;;6.83;1.30;;;50.40;1.00;;;;;;4933510;29;20494;-68
2022/08/10 08:05:39;;;;;;;4.90;1.07;;;51.20;1.00;;;;;;4923911;29;20502;-71
2022/08/10 08:08:07;;;;;;;4.07;1.57;;;52.00;1.00;;;;;;4927499;29;20499;-68
2022/08/10 08:10:37;;;;;;;3.83;1.40;;;52.70;1.00;;;;;;4932190;29;20462;-68
2022/08/10 08:13:05;;;;;;;3.57;1.47;;;53.20;1.00;;;;;;4932993;29;20482;-68
2022/08/10 08:15:34;;;;;;;4.70;1.50;;;53.80;1.00;;;;;;4929195;29;20680;-69
2022/08/10 08:18:04;;;;;;;4.50;1.50;;;53.90;1.00;;;;;;4931899;29;20463;-69
2022/08/10 08:20:33;;;;;;;4.13;1.70;;;54.10;1.00;;;;;;4930261;29;20551;-68
2022/08/10 08:23:01;;;;;;;4.57;1.40;;;54.20;1.00;;;;;;4925113;29;20482;-69
2022/08/10 08:25:28;;;;;;;4.67;1.30;;;54.30;1.00;;;;;;4930873;29;20487;-68
2022/08/10 08:27:58;;;;;;;4.80;1.73;;;54.80;1.00;;;;;;4930607;29;20960;-68
2022/08/10 08:30:25;;;;;;;3.80;1.60;;;54.60;1.00;;;;;;4933327;29;20552;-68
2022/08/10 08:33:12;;;;;;;3.63;1.20;;;54.10;1.00;;;;;;4930712;29;20467;-68
2022/08/10 08:35:40;;;;;;;3.73;1.20;;;54.10;1.00;;;;;;4936390;29;20488;-68
2022/08/10 08:38:07;;;;;;;6.03;1.20;;;53.70;1.00;;;;;;4949955;28;20462;-68
2022/08/10 08:40:35;;;;;;;4.07;1.20;;;53.10;1.00;;;;;;4949029;29;20961;-68
2022/08/10 08:43:24;;;;;;;4.30;1.20;;;52.40;1.00;;;;;;4944511;28;20702;-68
2022/08/10 08:46:13;;;;;;;6.63;1.40;;;51.90;1.00;;;;;;4940583;29;20518;-68
2022/08/10 08:48:59;;;;;;;4.30;1.40;;;51.80;1.00;;;;;;4945752;28;20467;-68
2022/08/10 08:51:40;;;;;;;3.60;1.37;;;51.60;1.00;;;;;;4944816;28;20458;-68
2022/08/10 08:54:19;;;;;;;5.47;1.40;;;51.30;1.00;;;;;;4945914;28;20466;-68
2022/08/10 08:56:51;;;;;;;4.30;1.30;;;51.20;1.00;;;;;;4948819;28;20481;-67
2022/08/10 08:59:30;;;;;;;4.80;1.40;;;50.90;1.00;;;;;;4943895;28;20462;-68
2022/08/10 09:02:17;;;;;;;3.70;1.07;;;51.00;1.00;;;;;;4948928;28;20451;-70
2022/08/10 09:04:59;;;;;;;3.33;1.30;;;51.20;1.00;;;;;;4947754;28;20471;-68
2022/08/10 09:07:51;;;;;;;5.00;1.40;;;51.10;1.00;;;;;;4947787;28;20459;-68
2022/08/10 09:10:25;;;;;;;3.37;1.33;;;50.70;1.00;;;;;;4942748;28;20470;-68
2022/08/10 09:13:01;;;;;;;6.37;1.53;;;50.40;1.00;;;;;;4951149;28;20538;-68
2022/08/10 09:15:37;;;;;;;3.57;1.40;;;50.90;1.00;;;;;;4945648;28;20488;-69
2022/08/10 09:18:12;;;;;;;4.17;1.57;;;50.80;1.00;;;;;;4955147;28;20464;-69
2022/08/10 09:20:46;;;;;;;4.30;1.40;;;50.10;1.00;;;;;;4948532;28;20466;-69
2022/08/10 09:23:25;;;;;;;4.10;1.60;;;50.30;1.00;;;;;;4943937;28;20458;-68
2022/08/10 09:25:56;;;;;;;8.80;1.83;;;50.10;1.00;;;;;;4952225;28;20481;-68
2022/08/10 09:28:25;;;;;;;12.43;1.97;;;50.80;1.00;;;;;;4955909;28;20459;-68
2022/08/10 09:30:59;;;;;;;5.20;1.00;;;51.20;1.00;;;;;;4948608;28;20475;-68
2022/08/10 09:33:37;;;;;;;4.57;1.33;;;51.30;1.00;;;;;;4951791;28;20459;-68
2022/08/10 09:36:11;;;;;;;7.43;1.90;;;51.30;1.00;;;;;;4943628;28;20493;-69
2022/08/10 09:38:48;;;;;;;3.40;1.50;;;51.20;1.00;;;;;;4938599;29;20469;-67
2022/08/10 09:41:24;;;;;;;7.57;1.47;;;50.80;1.00;;;;;;4938747;29;20463;-68
2022/08/10 09:44:00;;;;;;;6.03;1.33;;;51.10;1.00;;;;;;4933530;29;20459;-67
2022/08/10 09:46:39;;;;;;;4.23;1.40;;;51.30;1.00;;;;;;4933643;29;20483;-68
2022/08/10 09:49:15;;;;;;;3.83;1.60;;;50.90;1.00;;;;;;4937523;29;20463;-68
2022/08/10 09:51:48;;;;;;;6.27;1.30;;;50.10;1.00;;;;;;4936629;29;20475;-68
2022/08/10 09:54:35;;;;;;;3.73;1.00;;;48.60;1.00;;;;;;4936048;29;20838;-68
2022/08/10 09:57:13;;;;;;;5.60;1.50;;;49.20;1.00;;;;;;4932071;28;20479;-68
2022/08/10 09:59:47;;;;;;;4.80;1.17;;;50.20;1.00;;;;;;4930067;29;21447;-68
2022/08/10 10:02:26;;;;;;;6.43;1.20;;;50.80;1.00;;;;;;4929605;29;20467;-67
2022/08/10 10:05:03;;;;;;;2.80;1.03;;;50.90;1.00;;;;;;4931859;29;20546;-68
2022/08/10 10:07:31;;;;;;;3.10;0.90;;;50.10;1.00;;;;;;4918456;29;22223;-68
2022/08/10 10:10:03;;;;;;;6.10;1.33;;;49.30;1.00;;;;;;4924216;29;20471;-68
2022/08/10 10:12:42;;;;;;;3.90;1.30;;;48.00;1.00;;;;;;4931646;29;20819;-68
2022/08/10 10:15:20;;;;;;;3.00;1.23;;;47.00;1.00;;;;;;4932567;29;20463;-68
2022/08/10 10:18:12;;;;;;;3.00;0.97;;;46.60;1.00;;;;;;4927259;29;20461;-68
2022/08/10 10:20:45;;;;;;;3.40;1.27;;;46.20;1.00;;;;;;4929092;29;20475;-68
2022/08/10 10:23:20;;;;;;;4.83;1.50;;;44.60;1.00;;;;;;4933474;29;20904;-67
2022/08/10 10:25:56;;;;;;;8.13;1.50;;;42.60;1.00;;;;;;4924431;29;20498;-67
2022/08/10 10:28:40;;;;;;;5.40;1.20;;;41.60;1.00;;;;;;4938808;29;20961;-67
2022/08/10 10:31:14;;;;;;;4.50;1.27;;;39.70;1.00;;;;;;4940334;29;20463;-67
2022/08/10 10:33:51;;;;;;;4.70;1.40;;;38.00;1.00;;;;;;4928792;29;20554;-67
2022/08/10 10:36:19;;;;;;;4.07;1.30;;;36.40;1.00;;;;;;4933381;29;20583;-67
2022/08/10 10:38:47;;;;;;;3.80;1.30;;;35.00;1.00;;;;;;4934149;29;20455;-68
2022/08/10 10:41:30;;;;;;;4.07;1.33;;;34.00;1.00;;;;;;4943647;29;20459;-67
2022/08/10 10:44:12;;;;;;;3.70;1.40;;;33.10;1.00;;;;;;4930161;29;20463;-68
2022/08/10 10:46:51;;;;;;;11.50;1.60;;;32.30;1.00;;;;;;4936313;29;20495;-67
2022/08/10 10:49:30;;;;;;;5.53;1.37;;;31.50;1.00;;;;;;4935918;29;20965;-68
2022/08/10 10:52:04;;;;;;;4.80;1.33;;;30.90;1.00;;;;;;4926235;29;20460;-68
2022/08/10 10:54:40;;;;;;;4.80;1.37;;;30.30;1.00;;;;;;4933306;29;20466;-67
2022/08/10 10:57:17;;;;;;;4.40;1.60;;;29.80;1.00;;;;;;4932108;29;20475;-68
2022/08/10 11:00:01;;;;;;;3.60;1.13;;;29.40;1.00;;;;;;4924661;29;20466;-67
2022/08/10 11:02:41;;;;;;;3.97;1.83;;;29.20;1.00;;;;;;4924158;29;20460;-68
2022/08/10 11:05:18;;;;;;;4.03;1.57;;;29.10;1.00;;;;;;4923754;29;20475;-67
2022/08/10 11:07:53;;;;;;;4.33;2.03;;;29.00;1.00;;;;;;4928678;29;20574;-67
2022/08/10 11:10:27;;;;;;;6.07;1.80;;;28.80;1.00;;;;;;4928969;29;20458;-69
2022/08/10 11:13:11;;;;;;;3.40;1.17;;;28.70;1.00;;;;;;4925233;29;20990;-66
2022/08/10 11:15:44;;;;;;;3.43;1.20;;;28.60;1.00;;;;;;4937118;29;20518;-67
2022/08/10 11:18:21;;;;;;;8.00;1.97;;;28.50;1.00;;;;;;4929874;29;21173;-66
2022/08/10 11:20:57;;;;;;;5.40;1.80;;;28.50;1.00;;;;;;4926215;29;20463;-68
2022/08/10 11:23:34;;;;;;;4.20;1.30;;;28.30;1.00;;;;;;4917540;29;20475;-67
2022/08/10 11:26:08;;;;;;;5.27;1.50;;;28.20;1.00;;;;;;4910135;29;20484;-70
2022/08/10 11:28:42;;;;;;;5.87;2.00;;;28.00;1.00;;;;;;4929755;29;21002;-68
2022/08/10 11:31:19;;;;;;;4.47;1.80;;;27.90;1.00;;;;;;4932408;29;20845;-68
2022/08/10 11:33:53;;;;;;;7.57;1.53;;;27.70;1.00;;;;;;4921885;29;20467;-71
2022/08/10 11:36:27;;;;;;;3.80;1.50;;;27.70;1.00;;;;;;4923001;28;20579;-68
2022/08/10 11:38:59;;;;;;;4.40;1.70;;;27.70;1.00;;;;;;4928457;29;20459;-67
2022/08/10 11:41:38;;;;;;;4.70;1.83;;;27.70;1.00;;;;;;4925912;29;20475;-68
2022/08/10 11:44:11;;;;;;;4.70;1.93;;;27.60;1.00;;;;;;4929361;29;20456;-68
2022/08/10 11:46:44;;;;;;;5.90;1.77;;;27.50;1.00;;;;;;4938541;28;20937;-69
2022/08/10 11:49:17;;;;;;;7.83;1.80;;;27.50;1.00;;;;;;4928218;29;20459;-68
2022/08/10 11:51:48;;;;;;;4.23;1.60;;;27.50;1.00;;;;;;4928287;29;21068;-72
2022/08/10 11:54:24;;;;;;;6.33;2.50;;;27.50;1.00;;;;;;4925756;29;20547;-68
2022/08/10 11:56:52;;;;;;;4.00;1.73;;;27.50;1.00;;;;;;4925753;29;20468;-71
2022/08/10 12:02:11;;;;;;;4.43;1.73;;;27.50;1.00;;;;;;4923808;29;20463;-68
2022/08/10 12:04:41;;;;;;;9.40;1.67;;;27.50;1.00;;;;;;4938722;29;20469;-67
2022/08/10 12:07:10;;;;;;;4.77;2.10;;;27.40;1.00;;;;;;4937249;29;20513;-66
2022/08/10 12:09:38;;;;;;;4.80;1.63;;;27.30;1.00;;;;;;4939950;29;20488;-67
2022/08/10 12:12:06;;;;;;;4.60;1.50;;;27.40;1.00;;;;;;4931485;29;20470;-67
2022/08/10 12:14:40;;;;;;;5.50;1.60;;;27.30;1.00;;;;;;4927607;29;20487;-67
2022/08/10 12:17:13;;;;;;;5.50;1.90;;;27.30;1.00;;;;;;4931232;29;20490;-66
2022/08/10 12:19:43;;;;;;;5.27;1.40;;;27.30;1.00;;;;;;4935788;29;20490;-67
2022/08/10 12:22:16;;;;;;;6.53;1.53;;;27.20;1.00;;;;;;4925305;29;20983;-68
2022/08/10 12:24:49;;;;;;;4.47;1.80;;;27.10;1.00;;;;;;4930032;29;20459;-67
2022/08/10 12:27:21;;;;;;;4.57;1.50;;;27.10;1.00;;;;;;4924680;29;20494;-67
2022/08/10 12:29:58;;;;;;;7.07;1.73;;;27.00;1.00;;;;;;4929385;29;20459;-68
2022/08/10 12:32:32;;;;;;;5.97;2.10;;;26.90;1.00;;;;;;4928490;29;20467;-68
2022/08/10 12:35:06;;;;;;;4.47;1.70;;;26.90;1.00;;;;;;4934366;28;20475;-68
2022/08/10 12:37:44;;;;;;;4.27;1.70;;;26.90;1.00;;;;;;4937350;29;20943;-68
2022/08/10 12:40:17;;;;;;;4.53;1.53;;;26.80;1.00;;;;;;4930509;29;21187;-68
2022/08/10 12:42:52;;;;;;;3.80;1.47;;;26.90;1.00;;;;;;4928817;29;20459;-70
2022/08/10 12:45:31;;;;;;;4.90;1.30;;;26.90;1.00;;;;;;4930107;29;20478;-69
2022/08/10 12:48:03;;;;;;;3.80;1.63;;;26.90;1.00;;;;;;4923430;29;20570;-69
2022/08/10 12:50:37;;;;;;;5.40;1.77;;;26.90;1.00;;;;;;4930844;29;20460;-69
2022/08/10 12:53:14;;;;;;;6.10;1.67;;;26.90;1.00;;;;;;4932375;29;20580;-69
2022/08/10 12:55:42;;;;;;;3.70;1.70;;;27.00;1.00;;;;;;4924540;29;20931;-68
2022/08/10 12:58:13;;;;;;;4.40;1.57;;;26.90;1.00;;;;;;4924987;29;20480;-67
2022/08/10 13:00:43;;;;;;;4.53;1.40;;;26.90;1.00;;;;;;4929287;29;21095;-67
2022/08/10 13:03:11;;;;;;;5.23;1.77;;;26.90;1.00;;;;;;4933042;28;20459;-67
2022/08/10 13:05:39;;;;;;;3.50;1.30;;;26.90;1.00;;;;;;4938260;28;20479;-68
2022/08/10 13:10:56;;;;;;;4.40;1.50;;;26.90;1.00;;;;;;4935576;29;20454;-67
2022/08/10 13:13:27;;;;;;;4.43;1.30;;;26.90;1.00;;;;;;4937079;29;20458;-68
2022/08/10 13:15:56;;;;;;;3.50;1.20;;;26.90;1.00;;;;;;4932428;29;20824;-69
2022/08/10 13:18:27;;;;;;;4.17;1.60;;;26.80;1.00;;;;;;4931581;29;20460;-68
2022/08/10 13:20:59;;;;;;;5.93;2.00;;;26.70;1.00;;;;;;4934034;29;20463;-67
2022/08/10 13:23:29;;;;;;;4.90;1.80;;;26.70;1.00;;;;;;4922953;29;20600;-67
2022/08/10 13:25:59;;;;;;;4.47;1.90;;;26.70;1.00;;;;;;4927368;29;20479;-67